Time;durP1;ratioP1;P1;durP2;ratioP2;P2;SDS_P1;SDS_P2;PMS_P1;PMS_P2;Temp;Humidity;BMP_temperature;BMP_pressure;BME280_temperature;BME280_humidity;BME280_pressure;Samples;Min_cycle;Max_cycle;Signal;HPM_P1;HPM_P2
2022/05/19 00:02:03;;;;;;;;;4.00;4.00;;;;;6.69;80.71;100775.97;6284238;20;3461699;-50
2022/05/19 00:04:34;;;;;;;;;8.50;5.75;;;;;6.30;82.11;100777.03;6328763;20;1823320;-52
2022/05/19 00:07:02;;;;;;;;;4.00;3.00;;;;;6.24;82.38;100768.28;6316599;20;3446109;-53
2022/05/19 00:09:31;;;;;;;;;4.75;3.00;;;;;6.30;82.62;100771.69;6331656;20;1823288;-49
2022/05/19 00:12:09;;;;;;;;;5.50;3.00;;;;;6.55;82.28;100773.69;6330861;20;1812874;-49
2022/05/19 00:14:38;;;;;;;;;3.50;3.50;;;;;6.84;79.98;100766.66;6331743;20;1807745;-48
2022/05/19 00:17:06;;;;;;;;;7.75;5.50;;;;;6.54;82.38;100770.16;6330741;20;1822964;-47
2022/05/19 00:19:34;;;;;;;;;4.00;3.00;;;;;7.17;79.77;100778.16;6314430;20;3449203;-48
2022/05/19 00:22:03;;;;;;;;;3.25;3.25;;;;;6.87;80.93;100767.44;6331977;20;1823328;-51
2022/05/19 00:24:32;;;;;;;;;7.25;4.00;;;;;7.09;79.91;100769.50;6332112;20;1812456;-53
2022/05/19 00:27:00;;;;;;;;;10.00;3.50;;;;;6.79;82.11;100770.34;6314181;20;2767965;-55
2022/05/19 00:29:28;;;;;;;;;7.50;4.00;;;;;6.68;82.12;100768.88;6283400;20;2748192;-52
2022/05/19 00:31:56;;;;;;;;;6.00;4.00;;;;;6.44;82.00;100767.78;6331357;20;1818480;-51
2022/05/19 00:34:27;;;;;;;;;5.50;5.50;;;;;6.59;80.92;100764.69;6331943;20;1825441;-51
2022/05/19 00:37:03;;;;;;;;;6.00;6.00;;;;;6.70;79.97;100769.72;6332051;20;1815961;-49
2022/05/19 00:39:36;;;;;;;;;6.25;5.75;;;;;6.28;80.60;100765.50;6332391;20;1813923;-50
2022/05/19 00:44:51;;;;;;;;;6.00;4.50;;;;;6.44;78.45;100775.78;6331424;20;1816034;-52
2022/05/19 00:47:24;;;;;;;;;4.50;4.50;;;;;6.45;77.42;100785.53;6336138;20;1815961;-54
2022/05/19 00:49:53;;;;;;;;;4.00;4.00;;;;;6.35;78.42;100785.78;6335450;20;1815925;-53
2022/05/19 00:52:43;;;;;;;;;4.00;4.00;;;;;6.33;78.91;100776.06;6337326;20;1823298;-52
2022/05/19 00:55:25;;;;;;;;;7.25;6.00;;;;;6.36;77.94;100783.97;6334292;20;1822748;-49
2022/05/19 00:58:07;;;;;;;;;4.00;4.00;;;;;6.26;78.11;100785.13;6333955;20;1823276;-51
2022/05/19 01:00:36;;;;;;;;;5.75;4.00;;;;;5.99;79.61;100776.06;6333463;20;1814860;-53
2022/05/19 01:03:05;;;;;;;;;4.00;4.00;;;;;6.06;79.97;100777.66;6334660;20;1823246;-54
2022/05/19 01:05:51;;;;;;;;;5.50;5.50;;;;;5.59;82.63;100779.66;6335365;20;1819057;-53
2022/05/19 01:08:43;;;;;;;;;6.75;6.00;;;;;5.80;82.72;100773.81;6335863;20;1818714;-53
2022/05/19 01:11:15;;;;;;;;;4.00;4.00;;;;;5.96;81.75;100773.47;6333761;20;1825352;-53
2022/05/19 01:13:44;;;;;;;;;5.33;4.00;;;;;6.02;80.58;100775.97;6314349;20;3469014;-52
2022/05/19 01:16:14;;;;;;;;;4.00;4.00;;;;;5.76;82.00;100782.78;6305534;20;1822853;-49
2022/05/19 01:18:44;;;;;;;;;5.50;5.00;;;;;6.07;82.09;100782.06;6334251;20;1825359;-53
2022/05/19 01:21:18;;;;;;;;;6.75;6.75;;;;;6.24;80.45;100774.53;6331266;20;1815956;-53
2022/05/19 01:24:21;;;;;;;;;4.50;4.50;;;;;5.83;82.41;100772.88;6332392;20;1822285;-53
2022/05/19 01:26:57;;;;;;;;;4.00;4.00;;;;;5.76;82.97;100774.78;6314788;20;2754467;-51
2022/05/19 01:29:28;;;;;;;;;7.00;6.00;;;;;6.18;80.95;100774.66;6332429;20;1821137;-51
2022/05/19 01:32:02;;;;;;;;;5.50;4.50;;;;;5.88;81.23;100774.50;6332988;20;1825549;-50
2022/05/19 01:34:34;;;;;;;;;7.00;7.00;;;;;5.87;82.40;100778.09;6335297;20;1816995;-51
2022/05/19 01:37:03;;;;;;;;;6.00;6.00;;;;;6.45;80.45;100773.09;6335973;20;1813406;-50
2022/05/19 01:39:32;;;;;;;;;6.75;6.50;;;;;6.63;78.34;100777.00;6334491;20;1808680;-50
2022/05/19 01:42:28;;;;;;;;;5.75;5.75;;;;;6.20;81.49;100772.84;6332823;20;1821239;-49
2022/05/19 01:45:36;;;;;;;;;3.00;3.00;;;;;5.96;81.69;100773.47;6314780;20;3467925;-53
2022/05/19 01:48:36;;;;;;;;;6.00;5.00;;;;;5.89;81.15;100770.91;6281541;20;2746175;-52
2022/05/19 01:51:50;;;;;;;;;6.00;6.00;;;;;5.31;83.14;100766.97;6327142;20;1819135;-52
2022/05/19 01:54:37;;;;;;;;;8.00;7.00;;;;;5.38;81.96;100771.25;6330671;20;1819079;-52
2022/05/19 01:57:39;;;;;;;;;8.00;6.00;;;;;5.15;83.30;100770.91;6315143;20;2747167;-50
2022/05/19 02:00:22;;;;;;;;;4.00;4.00;;;;;5.18;84.27;100773.47;6313262;20;2746118;-55
2022/05/19 02:03:24;;;;;;;;;3.50;3.50;;;;;4.98;83.26;100772.13;6333233;20;1816913;-54
2022/05/19 02:05:59;;;;;;;;;5.67;3.67;;;;;5.04;83.56;100793.28;6312349;20;3457779;-51
2022/05/19 02:08:51;;;;;;;;;8.00;4.25;;;;;5.45;82.06;100788.88;6334070;20;1819221;-54
2022/05/19 02:11:33;;;;;;;;;8.25;6.75;;;;;6.05;79.12;100789.22;6330854;20;1819297;-52
2022/05/19 02:14:13;;;;;;;;;4.67;4.67;;;;;5.81;79.02;100796.00;6332407;20;1819313;-52
2022/05/19 02:16:43;;;;;;;;;8.50;8.50;;;;;5.97;79.91;100788.53;6330228;20;1811731;-52
2022/05/19 02:19:19;;;;;;;;;7.00;7.00;;;;;6.13;79.85;100787.25;6314477;20;2731514;-50
2022/05/19 02:21:48;;;;;;;;;12.25;8.50;;;;;5.81;81.40;100786.22;6191909;20;2905604;-52
2022/05/19 02:24:25;;;;;;;;;8.50;8.25;;;;;5.84;82.27;100794.13;6332866;20;1815842;-53
2022/05/19 02:26:53;;;;;;;;;11.00;9.00;;;;;5.71;82.88;100792.69;6313222;20;2753407;-54
2022/05/19 02:29:26;;;;;;;;;9.00;9.00;;;;;5.91;83.40;100793.09;6284263;20;2761353;-54
2022/05/19 02:31:56;;;;;;;;;8.83;8.67;;;;;5.72;82.59;100791.78;6324672;20;1804523;-53
2022/05/19 02:34:25;;;;;;;;;8.25;6.25;;;;;5.44;82.43;100794.22;6305462;20;1820155;-51
2022/05/19 02:36:54;;;;;;;;;7.25;6.00;;;;;5.54;80.97;100802.88;6333236;20;1819112;-53
2022/05/19 02:39:24;;;;;;;;;7.00;6.25;;;;;5.41;80.41;100791.63;6356707;20;2469194;-51
2022/05/19 02:41:53;;;;;;;;;6.75;6.00;;;;;5.58;79.42;100800.13;6303614;20;1825371;-51
2022/05/19 02:44:21;;;;;;;;;8.00;7.00;;;;;5.75;79.15;100802.38;6336632;20;1805516;-50
2022/05/19 02:46:49;;;;;;;;;12.00;7.00;;;;;5.50;79.08;100796.72;6316022;20;2760697;-53
2022/05/19 02:49:24;;;;;;;;;8.00;6.00;;;;;4.99;81.53;100799.63;6302926;20;1821327;-51
2022/05/19 02:51:52;;;;;;;;;7.33;7.33;;;;;5.21;82.23;100797.38;6337982;20;1819200;-50
2022/05/19 02:54:21;;;;;;;;;6.00;6.00;;;;;5.00;82.27;100806.69;6333269;20;1815914;-53
2022/05/19 02:56:50;;;;;;;;;10.50;6.50;;;;;5.16;82.30;100802.81;6333803;20;1815907;-51
2022/05/19 02:59:18;;;;;;;;;11.00;7.00;;;;;4.92;83.20;100808.63;6314650;20;2753388;-49
2022/05/19 03:01:45;;;;;;;;;9.50;7.00;;;;;4.87;83.63;100813.16;6313400;20;2755494;-53
2022/05/19 03:04:13;;;;;;;;;7.50;7.00;;;;;4.77;84.08;100805.38;6285273;20;2736874;-48
2022/05/19 03:06:41;;;;;;;;;9.00;8.00;;;;;5.18;82.89;100806.31;6311460;20;2751733;-52
2022/05/19 03:09:10;;;;;;;;;11.25;8.50;;;;;5.10;82.74;100802.06;6331529;20;1819135;-50
2022/05/19 03:11:38;;;;;;;;;8.50;8.00;;;;;5.02;82.82;100811.06;6334525;20;1808476;-50
2022/05/19 03:14:07;;;;;;;;;6.50;6.00;;;;;5.06;83.22;100810.13;6331638;20;1819157;-50
2022/05/19 03:16:36;;;;;;;;;11.00;6.00;;;;;4.65;83.27;100807.41;6316669;20;2750299;-51
2022/05/19 03:19:05;;;;;;;;;8.00;7.00;;;;;4.77;83.08;100799.19;6331069;20;1808687;-48
2022/05/19 03:21:34;;;;;;;;;6.50;6.50;;;;;4.84;83.60;100807.03;6328842;20;1810699;-49
2022/05/19 03:24:02;;;;;;;;;10.00;8.00;;;;;5.05;82.44;100795.06;6332362;20;1820576;-51
2022/05/19 03:26:31;;;;;;;;;7.50;7.50;;;;;4.60;83.65;100802.16;6334129;20;1812827;-50
2022/05/19 03:28:59;;;;;;;;;13.00;8.00;;;;;4.94;84.14;100802.38;6313325;20;2764824;-47
2022/05/19 03:31:28;;;;;;;;;12.50;7.00;;;;;5.63;80.73;100813.31;6315762;20;2760704;-48
2022/05/19 03:33:56;;;;;;;;;9.00;7.00;;;;;5.34;81.68;100806.84;6298856;20;1814993;-50
2022/05/19 03:36:25;;;;;;;;;8.00;8.00;;;;;5.75;81.01;100818.34;6334380;20;1812883;-53
2022/05/19 03:38:53;;;;;;;;;8.00;7.00;;;;;5.35;82.44;100819.28;6316669;20;2738918;-50
2022/05/19 03:41:20;;;;;;;;;10.00;8.50;;;;;5.42;81.73;100822.66;6312462;20;2769052;-50
2022/05/19 03:43:50;;;;;;;;;6.75;6.75;;;;;5.68;79.58;100827.41;6301005;20;1816020;-51
2022/05/19 03:46:19;;;;;;;;;6.00;6.00;;;;;5.64;78.91;100831.94;6333912;20;1804576;-50
2022/05/19 03:48:48;;;;;;;;;6.50;5.50;;;;;5.66;78.26;100830.13;6333563;20;1819141;-50
2022/05/19 03:51:28;;;;;;;;;6.00;6.00;;;;;5.79;78.19;100833.34;6334465;20;1808616;-51
2022/05/19 03:53:56;;;;;;;;;10.00;4.50;;;;;5.86;77.89;100831.44;6330469;20;1815492;-51
2022/05/19 03:56:25;;;;;;;;;8.00;8.00;;;;;6.19;76.89;100835.09;6312340;20;3457628;-53
2022/05/19 03:58:54;;;;;;;;;8.25;7.00;;;;;6.15;76.91;100834.28;6301570;20;1805580;-48
2022/05/19 04:01:23;;;;;;;;;6.75;4.00;;;;;6.33;77.08;100843.63;6326932;20;1820143;-51
2022/05/19 04:03:53;;;;;;;;;6.25;6.25;;;;;6.51;76.06;100839.59;6332288;20;1819126;-50
2022/05/19 04:06:21;;;;;;;;;8.00;8.00;;;;;6.65;76.81;100839.22;6329901;20;1816751;-46
2022/05/19 04:08:50;;;;;;;;;7.00;6.25;;;;;6.74;76.12;100830.09;6334056;20;1806633;-48
2022/05/19 04:11:19;;;;;;;;;9.50;7.00;;;;;7.22;74.46;100840.31;6329819;20;1805586;-55
2022/05/19 04:13:47;;;;;;;;;8.50;7.00;;;;;7.33;74.47;100840.00;6333220;20;1815998;-53
2022/05/19 04:16:16;;;;;;;;;6.50;6.50;;;;;7.27;74.79;100843.72;6327065;20;1815985;-54
2022/05/19 04:18:44;;;;;;;;;7.75;7.00;;;;;7.82;73.28;100841.16;6333577;20;1818739;-54
2022/05/19 04:21:12;;;;;;;;;10.00;7.00;;;;;7.60;74.44;100840.97;6311862;20;2759686;-51
2022/05/19 04:23:40;;;;;;;;;10.50;7.50;;;;;8.64;70.54;100839.38;6315753;20;2756558;-51
2022/05/19 04:26:08;;;;;;;;;13.00;7.00;;;;;9.31;66.85;100850.31;6281600;20;2754535;-52
2022/05/19 04:28:36;;;;;;;;;7.50;7.50;;;;;8.73;69.71;100841.72;6284331;20;2738874;-52
2022/05/19 04:31:04;;;;;;;;;8.00;7.00;;;;;8.71;69.99;100855.16;6312290;20;2738872;-55
2022/05/19 04:33:32;;;;;;;;;5.75;5.00;;;;;8.48;71.98;100847.06;6331995;20;1817995;-53
2022/05/19 04:36:04;;;;;;;;;7.67;6.00;;;;;8.85;69.17;100849.31;6356624;20;1801296;-52
2022/05/19 04:38:32;;;;;;;;;8.00;7.00;;;;;8.74;70.84;100856.84;6287689;20;3433628;-52
2022/05/19 04:41:04;;;;;;;;;11.00;6.00;;;;;8.31;74.32;100856.47;6313231;20;2627345;-53
2022/05/19 04:43:33;;;;;;;;;9.00;5.75;;;;;8.43;74.75;100857.06;6328840;20;1819558;-52
2022/05/19 04:46:01;;;;;;;;;11.00;8.50;;;;;8.89;73.54;100858.13;6313555;20;2758569;-51
2022/05/19 04:48:29;;;;;;;;;5.25;5.25;;;;;9.02;73.41;100854.94;6298730;20;1812992;-54
2022/05/19 04:50:59;;;;;;;;;11.00;7.25;;;;;9.45;71.40;100853.34;6329313;20;1813913;-51
2022/05/19 04:53:28;;;;;;;;;10.50;7.00;;;;;9.85;69.58;100857.16;6312715;20;2763802;-48
2022/05/19 04:55:56;;;;;;;;;9.00;6.00;;;;;10.23;67.48;100860.09;6284071;20;2732596;-53
2022/05/19 04:58:24;;;;;;;;;7.50;7.50;;;;;10.64;64.38;100862.88;6314770;20;2740006;-54
2022/05/19 05:00:52;;;;;;;;;7.00;7.00;;;;;11.00;63.08;100870.25;6282746;20;2739822;-48
2022/05/19 05:03:21;;;;;;;;;9.00;7.00;;;;;10.92;65.26;100869.72;6313410;20;2751361;-49
2022/05/19 05:05:49;;;;;;;;;14.00;9.00;;;;;10.95;64.04;100873.16;6280593;20;2756496;-50
2022/05/19 05:08:17;;;;;;;;;10.50;7.00;;;;;11.35;63.20;100873.19;6282525;20;2756511;-51
2022/05/19 05:10:44;;;;;;;;;12.00;7.00;;;;;11.57;61.75;100868.56;6279666;20;2756529;-52
2022/05/19 05:13:15;;;;;;;;;9.00;5.00;;;;;11.59;60.50;100863.97;6283819;20;2748240;-51
2022/05/19 05:15:44;;;;;;;;;9.00;6.00;;;;;11.77;60.00;100866.72;6283265;20;2739827;-49
2022/05/19 05:18:14;;;;;;;;;7.83;7.67;;;;;11.45;65.17;100871.81;6323570;20;1790952;-52
2022/05/19 05:20:43;;;;;;;;;6.00;6.00;;;;;12.03;61.83;100874.47;6299519;20;1814979;-50
2022/05/19 05:23:12;;;;;;;;;7.00;7.00;;;;;12.59;59.75;100872.59;6314285;20;2744066;-52
2022/05/19 05:25:41;;;;;;;;;1.00;1.00;;;;;12.92;56.48;100882.59;6297861;20;1803554;-53
2022/05/19 05:28:08;;;;;;;;;6.50;5.00;;;;;12.84;60.94;100879.41;6312507;20;2745077;-54
2022/05/19 05:30:36;;;;;;;;;7.50;7.50;;;;;12.94;60.66;100884.25;6282028;20;2734746;-53
2022/05/19 05:33:08;;;;;;;;;6.00;5.00;;;;;13.24;58.87;100875.47;6287582;20;2748215;-51
2022/05/19 05:35:37;;;;;;;;;7.00;6.00;;;;;13.54;59.77;100878.41;6286202;20;2738907;-54
2022/05/19 05:38:04;;;;;;;;;6.50;6.00;;;;;13.86;54.13;100885.66;6289338;20;2746151;-51
2022/05/19 05:40:36;;;;;;;;;5.40;5.40;;;;;13.75;57.43;100881.75;6310462;20;2751909;-52
2022/05/19 05:43:16;;;;;;;;;5.00;5.00;;;;;13.91;58.23;100888.97;6317293;20;2745116;-55
2022/05/19 05:45:45;;;;;;;;;7.00;5.00;;;;;14.13;54.97;100885.94;6286904;20;2744123;-55
2022/05/19 05:48:19;;;;;;;;;6.00;6.00;;;;;14.57;54.70;100885.22;6313249;20;2742042;-54
2022/05/19 05:50:46;;;;;;;;;4.00;4.00;;;;;14.70;52.92;100883.53;6324213;20;2634846;-52
2022/05/19 05:53:16;;;;;;;;;6.40;5.20;;;;;15.08;51.80;100897.44;6309304;20;2743019;-53
2022/05/19 05:55:43;;;;;;;;;8.00;5.00;;;;;15.04;51.58;100895.88;6319443;20;2737749;-53
2022/05/19 05:58:14;;;;;;;;;5.14;4.29;;;;;15.36;51.60;100882.22;6330605;20;3461756;-53
2022/05/19 06:00:42;;;;;;;;;4.00;4.00;;;;;15.49;51.58;100887.72;6316542;20;2756898;-53
2022/05/19 06:03:11;;;;;;;;;3.00;3.00;;;;;15.93;50.17;100900.28;6303939;20;1811892;-53
2022/05/19 06:05:39;;;;;;;;;3.00;3.00;;;;;16.01;50.47;100903.41;6319449;20;2741971;-53
2022/05/19 06:08:07;;;;;;;;;3.50;3.50;;;;;16.16;47.82;100909.63;6288422;20;2736752;-52
2022/05/19 06:10:35;;;;;;;;;4.00;4.00;;;;;16.40;47.78;100904.44;6286357;20;2753410;-49
2022/05/19 06:13:04;;;;;;;;;3.50;3.50;;;;;16.50;47.46;100910.13;6289037;20;2746622;-50
2022/05/19 06:15:33;;;;;;;;;5.00;3.50;;;;;16.67;47.77;100915.31;6287654;20;2748276;-53
2022/05/19 06:18:01;;;;;;;;;4.00;4.00;;;;;16.98;47.67;100914.13;6285705;20;2751287;-52
2022/05/19 06:20:29;;;;;;;;;5.00;4.00;;;;;17.27;47.09;100912.09;6288580;20;2754410;-57
2022/05/19 06:22:58;;;;;;;;;3.00;3.00;;;;;17.14;44.43;100916.66;6292391;20;2738806;-51
2022/05/19 06:25:27;;;;;;;;;2.00;2.00;;;;;17.68;44.22;100911.00;6291259;20;2737867;-53
2022/05/19 06:27:55;;;;;;;;;2.50;2.50;;;;;18.16;41.50;100902.13;6291749;20;2745190;-54
2022/05/19 06:30:23;;;;;;;;;2.50;2.00;;;;;17.77;42.07;100913.06;6290587;20;2739925;-55
2022/05/19 06:32:51;;;;;;;;;2.00;2.00;;;;;18.15;41.95;100914.84;6290570;20;2742020;-53
2022/05/19 06:35:28;;;;;;;;;2.00;1.00;;;;;18.74;42.05;100910.47;6293767;20;2731644;-54
2022/05/19 06:37:57;;;;;;;;;3.00;3.00;;;;;19.28;40.02;100909.97;6295399;20;2655506;-54
2022/05/19 06:40:28;;;;;;;;;3.00;2.00;;;;;19.53;38.91;100917.91;6288659;20;2741979;-54
2022/05/19 06:42:57;;;;;;;;;4.00;2.50;;;;;19.22;36.17;100915.88;6285877;20;2750283;-50
2022/05/19 06:45:28;;;;;;;;;3.50;2.50;;;;;19.92;36.92;100918.47;6290588;20;2736859;-54
2022/05/19 06:47:57;;;;;;;;;3.00;2.00;;;;;20.13;36.14;100918.56;6289668;20;2730668;-50
2022/05/19 06:50:25;;;;;;;;;1.00;1.00;;;;;19.89;35.76;100917.84;6291384;20;2725291;-57
2022/05/19 06:53:01;;;;;;;;;2.00;2.00;;;;;20.72;35.13;100925.56;6291624;20;2751328;-53
2022/05/19 06:55:34;;;;;;;;;1.67;1.00;;;;;21.27;33.65;100929.03;6293807;20;2730482;-53
2022/05/19 06:58:05;;;;;;;;;2.00;2.00;;;;;21.19;32.94;100922.47;6323491;20;2744033;-56
2022/05/19 07:00:34;;;;;;;;;1.00;1.00;;;;;21.29;32.08;100928.00;6320958;20;2732529;-55
2022/05/19 07:03:03;;;;;;;;;1.00;1.00;;;;;21.61;29.73;100926.06;6323238;20;2730491;-53
2022/05/19 07:05:39;;;;;;;;;1.00;1.00;;;;;21.77;29.97;100928.31;6323072;20;2724228;-57
2022/05/19 07:08:08;;;;;;;;;1.33;1.33;;;;;22.39;29.91;100926.41;6323285;20;2731591;-55
2022/05/19 07:10:36;;;;;;;;;3.67;1.00;;;;;22.34;29.17;100928.72;6322383;20;2731600;-53
2022/05/19 07:13:06;;;;;;;;;1.67;1.67;;;;;22.63;28.35;100927.91;6322149;20;2722178;-56
2022/05/19 07:15:34;;;;;;;;;1.00;1.00;;;;;22.72;27.20;100929.78;6322940;20;2727475;-51
2022/05/19 07:18:04;;;;;;;;;2.00;2.00;;;;;21.45;26.41;100928.44;6317186;20;2750250;-57
2022/05/19 07:20:44;;;;;;;;;2.80;2.00;;;;;21.39;27.01;100928.97;6359384;20;2479515;-57
2022/05/19 07:23:27;;;;;;;;;2.60;1.80;;;;;21.86;28.08;100929.38;6339309;20;2739876;-54
2022/05/19 07:25:56;;;;;;;;;2.40;2.40;;;;;22.63;26.72;100930.66;6344871;20;2747153;-52
2022/05/19 07:28:25;;;;;;;;;4.00;4.00;;;;;22.02;25.79;100937.94;6287220;20;2752524;-54
2022/05/19 07:30:54;;;;;;;;;5.67;4.00;;;;;22.13;26.11;100929.63;6318193;20;2749247;-54
2022/05/19 07:33:28;;;;;;;;;5.00;5.00;;;;;22.77;25.29;100928.34;6343698;20;2752329;-54
2022/05/19 07:35:58;;;;;;;;;3.20;2.20;;;;;22.80;24.33;100927.19;6309297;20;2756486;-51
2022/05/19 07:38:27;;;;;;;;;4.60;2.00;;;;;23.00;25.75;100926.22;6311795;20;2756555;-54
2022/05/19 07:40:56;;;;;;;;;2.00;2.00;;;;;22.43;24.90;100924.25;6287300;20;2739928;-54
2022/05/19 07:43:36;;;;;;;;;1.33;1.33;;;;;22.27;25.29;100925.66;6322501;20;2731499;-54
2022/05/19 07:46:08;;;;;;;;;3.00;2.00;;;;;22.75;24.43;100929.53;6320785;20;2739849;-57
2022/05/19 07:48:38;;;;;;;;;3.00;1.60;;;;;22.98;25.75;100930.13;6340419;20;2727376;-49
2022/05/19 07:51:07;;;;;;;;;1.80;1.80;;;;;22.79;23.53;100933.69;6341793;20;2741944;-52
2022/05/19 07:53:36;;;;;;;;;4.00;2.00;;;;;23.42;22.99;100923.16;6317075;20;2750377;-55
2022/05/19 07:56:05;;;;;;;;;2.00;1.00;;;;;23.05;23.46;100924.94;6323183;20;2731482;-56
2022/05/19 07:58:35;;;;;;;;;2.40;2.00;;;;;23.48;24.06;100926.31;6341880;20;2737771;-55
2022/05/19 08:01:04;;;;;;;;;2.00;2.00;;;;;23.66;24.02;100921.78;6341450;20;2744050;-53
2022/05/19 08:03:34;;;;;;;;;4.00;2.40;;;;;23.17;24.62;100923.75;6342745;20;2733590;-56
2022/05/19 08:06:07;;;;;;;;;2.00;2.00;;;;;23.35;24.53;100929.34;6344045;20;2737821;-54
2022/05/19 08:08:40;;;;;;;;;2.80;2.80;;;;;23.34;23.83;100931.25;6344597;20;2734629;-57
2022/05/19 08:11:10;;;;;;;;;4.40;2.00;;;;;22.98;23.64;100928.22;6337287;20;2756510;-56
2022/05/19 08:16:27;;;;;;;;;2.00;2.00;;;;;23.55;23.68;100927.44;6343727;20;2739860;-53
2022/05/19 08:18:56;;;;;;;;;2.00;2.00;;;;;24.63;23.45;100935.09;6321299;20;2745064;-54
2022/05/19 08:21:25;;;;;;;;;1.00;1.00;;;;;23.82;23.13;100935.75;6341372;20;2727454;-54
2022/05/19 08:23:55;;;;;;;;;2.00;2.00;;;;;23.90;23.44;100932.28;6344846;20;2737802;-55
2022/05/19 08:26:24;;;;;;;;;2.00;2.00;;;;;23.55;23.51;100924.72;6319815;20;2743995;-55
2022/05/19 08:28:52;;;;;;;;;3.00;1.00;;;;;23.22;22.93;100926.91;6329248;20;2632524;-54
2022/05/19 08:31:24;;;;;;;;;2.80;2.00;;;;;23.98;23.75;100931.53;6343695;20;2735784;-52
2022/05/19 08:33:54;;;;;;;;;1.20;1.00;;;;;24.59;23.40;100932.81;6341710;20;2726276;-50
2022/05/19 08:36:26;;;;;;;;;1.60;1.60;;;;;24.41;23.41;100924.50;6343349;20;2735717;-54
2022/05/19 08:38:56;;;;;;;;;1.20;1.20;;;;;24.13;23.05;100921.78;6341724;20;2727325;-50
2022/05/19 08:41:37;;;;;;;;;1.00;1.00;;;;;24.07;23.12;100925.13;6321554;20;2724211;-56
2022/05/19 08:44:28;;;;;;;;;2.20;2.20;;;;;24.06;22.76;100927.00;6340427;20;2733627;-51
2022/05/19 08:47:00;;;;;;;;;1.60;1.00;;;;;24.06;22.61;100917.91;6338993;20;2724333;-52
2022/05/19 08:49:42;;;;;;;;;2.20;2.00;;;;;23.97;22.96;100927.91;6336538;20;2739291;-55
2022/05/19 08:52:20;;;;;;;;;2.00;2.00;;;;;24.95;23.07;100922.69;6341727;20;2741977;-54
2022/05/19 08:54:55;;;;;;;;;3.40;1.80;;;;;24.41;22.05;100919.00;6342445;20;2756490;-51
2022/05/19 08:57:37;;;;;;;;;1.00;1.00;;;;;25.11;21.53;100917.34;6310604;20;2721094;-54
2022/05/19 09:00:24;;;;;;;;;2.00;2.00;;;;;24.03;23.22;100920.97;6340056;20;2753459;-54
2022/05/19 09:03:05;;;;;;;;;1.20;1.20;;;;;23.97;22.46;100916.94;6310089;20;2721093;-56
2022/05/19 09:06:27;;;;;;;;;1.43;1.43;;;;;24.36;22.26;100914.00;6359954;20;3448196;-54
2022/05/19 09:09:21;;;;;;;;;1.33;1.33;;;;;24.41;23.38;100921.75;6323575;20;2737759;-53
2022/05/19 09:12:04;;;;;;;;;1.00;1.00;;;;;24.77;22.20;100919.09;6327058;20;2727344;-54
2022/05/19 09:14:34;;;;;;;;;2.00;2.00;;;;;24.05;23.17;100913.44;6345906;20;2756531;-54
2022/05/19 09:17:12;;;;;;;;;1.00;1.00;;;;;24.67;22.35;100914.56;6319671;20;2727355;-56
2022/05/19 09:19:52;;;;;;;;;1.20;1.20;;;;;24.27;22.01;100912.16;6344953;20;2735659;-56
2022/05/19 09:22:29;;;;;;;;;1.80;1.80;;;;;24.30;23.09;100907.25;6346725;20;2733662;-55
2022/05/19 09:25:04;;;;;;;;;1.00;1.00;;;;;25.05;23.00;100907.00;6347519;20;2727446;-53
2022/05/19 09:27:42;;;;;;;;;1.00;1.00;;;;;24.70;22.15;100906.00;6346332;20;2726287;-53
2022/05/19 09:30:39;;;;;;;;;3.60;1.20;;;;;25.13;22.72;100914.44;6346995;20;2744022;-53
2022/05/19 09:33:35;;;;;;;;;2.00;2.00;;;;;25.50;22.54;100903.25;6345199;20;2747122;-52
2022/05/19 09:36:12;;;;;;;;;2.00;2.00;;;;;24.50;22.23;100902.50;6312782;20;2747123;-53
2022/05/19 09:38:50;;;;;;;;;1.00;1.00;;;;;24.23;23.19;100897.88;6290983;20;2727398;-56
2022/05/19 09:41:33;;;;;;;;;2.60;2.00;;;;;25.18;24.03;100895.63;6345965;20;2749261;-56
2022/05/19 09:44:06;;;;;;;;;2.00;2.00;;;;;25.29;22.88;100889.88;6312100;20;2738779;-53
2022/05/19 09:46:47;;;;;;;;;2.60;1.60;;;;;25.60;23.11;100893.00;6345413;20;2733673;-56
2022/05/19 09:49:33;;;;;;;;;1.80;1.80;;;;;24.85;22.30;100888.94;6346826;20;2734697;-56
2022/05/19 09:52:07;;;;;;;;;1.00;1.00;;;;;25.07;23.18;100895.84;6345876;20;2723157;-55
2022/05/19 09:54:36;;;;;;;;;1.60;1.60;;;;;25.07;23.04;100888.47;6345581;20;2744456;-54
2022/05/19 09:57:15;;;;;;;;;4.00;2.00;;;;;26.22;22.28;100878.16;6345454;20;2736702;-56
2022/05/19 09:59:51;;;;;;;;;1.40;1.00;;;;;25.09;22.54;100880.94;6345124;20;2728493;-55
2022/05/19 10:02:24;;;;;;;;;2.00;1.00;;;;;25.33;22.43;100865.66;6345940;20;2744008;-58
2022/05/19 10:04:59;;;;;;;;;1.00;1.00;;;;;24.83;22.74;100880.88;6345760;20;2717972;-56
2022/05/19 10:07:42;;;;;;;;;1.20;1.20;;;;;25.35;22.80;100880.09;6347310;20;2727332;-53
2022/05/19 10:10:28;;;;;;;;;1.00;1.00;;;;;25.26;21.34;100875.59;6346378;20;2724267;-55
2022/05/19 10:13:11;;;;;;;;;1.80;0.60;;;;;25.32;21.72;100877.69;6344988;20;2730485;-56
2022/05/19 10:16:00;;;;;;;;;1.00;1.00;;;;;25.20;21.63;100871.59;6348390;20;2723165;-53
2022/05/19 10:18:56;;;;;;;;;1.00;1.00;;;;;25.30;22.67;100865.97;6343355;20;2725309;-51
2022/05/19 10:22:12;;;;;;;;;2.00;1.00;;;;;25.75;22.31;100862.13;6342697;20;1904486;-54
2022/05/19 10:25:36;;;;;;;;;3.67;2.00;;;;;24.89;23.12;100866.50;6289136;20;2751283;-53
2022/05/19 10:31:44;;;;;;;;;1.40;1.00;;;;;26.00;22.50;100850.22;6342570;20;2727327;-55
2022/05/19 10:34:58;;;;;;;;;4.60;1.20;;;;;25.39;22.64;100849.38;6346185;20;2739851;-51
2022/05/19 10:37:53;;;;;;;;;4.20;2.00;;;;;25.39;21.76;100845.78;6341735;20;2748233;-55
2022/05/19 10:41:34;;;;;;;;;2.00;0.60;;;;;26.05;21.98;100844.22;6309082;20;2720028;-55
2022/05/19 10:45:07;;;;;;;;;1.60;1.00;;;;;25.55;22.19;100845.88;6342920;20;2728426;-55
2022/05/19 10:48:11;;;;;;;;;2.00;2.00;;;;;25.83;21.31;100843.78;6320473;20;2734774;-55
2022/05/19 10:51:03;;;;;;;;;2.00;2.00;;;;;25.09;22.11;100828.72;6344018;20;2737764;-53
2022/05/19 10:54:29;;;;;;;;;4.80;1.00;;;;;26.15;21.61;100828.44;6311867;20;2727369;-50
2022/05/19 10:57:36;;;;;;;;;3.00;3.00;;;;;26.00;21.90;100830.97;6341265;20;2745094;-54
2022/05/19 11:00:57;;;;;;;;;2.60;2.00;;;;;25.71;22.06;100813.97;6311759;20;2742984;-52
2022/05/19 11:04:06;;;;;;;;;2.80;2.80;;;;;25.94;22.54;100812.38;6306971;20;2750271;-54
2022/05/19 11:07:04;;;;;;;;;3.00;2.40;;;;;25.91;21.34;100812.72;6314290;20;2752334;-52
2022/05/19 11:10:13;;;;;;;;;3.80;2.00;;;;;25.85;21.37;100799.59;6311981;20;2756486;-50
2022/05/19 11:13:02;;;;;;;;;2.00;2.00;;;;;25.54;20.73;100791.91;6313118;20;2739836;-48
2022/05/19 11:15:48;;;;;;;;;5.80;3.00;;;;;25.75;21.82;100790.59;6312152;20;2737758;-47
2022/05/19 11:18:28;;;;;;;;;2.60;2.60;;;;;25.80;21.89;100790.94;6342149;20;2747144;-49
2022/05/19 11:21:28;;;;;;;;;1.00;1.00;;;;;25.43;22.14;100794.91;6310561;20;2722162;-50
2022/05/19 11:24:30;;;;;;;;;3.00;2.00;;;;;24.76;21.52;100791.88;6341152;20;2746089;-50
2022/05/19 11:27:16;;;;;;;;;1.40;1.40;;;;;25.25;22.11;100785.88;6342221;20;2739920;-50
2022/05/19 11:30:17;;;;;;;;;2.00;2.00;;;;;25.63;21.93;100770.78;6337697;20;2727324;-51
2022/05/19 11:33:00;;;;;;;;;1.40;1.40;;;;;26.45;21.14;100774.59;6340580;20;2732610;-48
2022/05/19 11:36:03;;;;;;;;;1.40;1.40;;;;;26.70;20.78;100771.91;6337563;20;2737752;-49
2022/05/19 11:38:52;;;;;;;;;2.20;2.20;;;;;26.32;21.93;100766.00;6340464;20;2756494;-53
2022/05/19 11:41:31;;;;;;;;;3.00;3.00;;;;;25.49;22.88;100764.03;6307117;20;2753374;-51
2022/05/19 11:44:28;;;;;;;;;3.60;2.40;;;;;25.45;22.93;100754.38;6308035;20;2756524;-47
2022/05/19 11:56:20;;;;;;;;;4.80;2.20;;;;;25.22;22.23;100753.22;6307509;20;2751346;-50
2022/05/19 11:58:50;;;;;;;;;1.80;1.80;;;;;25.30;22.50;100745.00;6311441;20;2739909;-52
2022/05/19 12:01:27;;;;;;;;;4.20;3.20;;;;;25.95;21.93;100748.03;6309488;20;2750279;-52
2022/05/19 12:04:18;;;;;;;;;2.20;2.00;;;;;26.33;21.41;100736.56;6307183;20;2753530;-48
2022/05/19 12:07:22;;;;;;;;;2.40;2.40;;;;;26.27;21.97;100735.34;6310261;20;2746229;-47
2022/05/19 12:09:59;;;;;;;;;3.00;2.00;;;;;26.60;21.60;100732.66;6310224;20;2754414;-56
2022/05/19 12:12:40;;;;;;;;;4.50;4.50;;;;;26.42;20.91;100738.28;6331704;20;1794086;-54